sensor_id;sensor_type;location;lat;lon;timestamp;P1;durP1;ratioP1;P2;durP2;ratioP2
35634;SDS011;21757;43.610;1.440;2023-01-26T00:00:54;38.67;;;20.75;;
35634;SDS011;21757;43.610;1.440;2023-01-26T00:03:21;39.10;;;20.38;;
35634;SDS011;21757;43.610;1.440;2023-01-26T00:05:48;41.15;;;22.70;;
35634;SDS011;21757;43.610;1.440;2023-01-26T00:08:13;42.17;;;22.35;;
35634;SDS011;21757;43.610;1.440;2023-01-26T00:10:40;38.42;;;21.10;;
35634;SDS011;21757;43.610;1.440;2023-01-26T00:13:06;43.63;;;23.15;;
35634;SDS011;21757;43.610;1.440;2023-01-26T00:15:34;39.63;;;22.85;;
35634;SDS011;21757;43.610;1.440;2023-01-26T00:18:00;45.63;;;22.98;;
35634;SDS011;21757;43.610;1.440;2023-01-26T00:20:27;43.88;;;23.90;;
35634;SDS011;21757;43.610;1.440;2023-01-26T00:22:54;43.05;;;23.13;;
35634;SDS011;21757;43.610;1.440;2023-01-26T00:25:20;43.03;;;23.05;;
35634;SDS011;21757;43.610;1.440;2023-01-26T00:27:46;42.85;;;22.42;;
35634;SDS011;21757;43.610;1.440;2023-01-26T00:30:12;42.58;;;23.30;;
35634;SDS011;21757;43.610;1.440;2023-01-26T00:32:38;43.92;;;24.38;;
35634;SDS011;21757;43.610;1.440;2023-01-26T00:35:04;47.53;;;24.25;;
35634;SDS011;21757;43.610;1.440;2023-01-26T00:37:30;43.70;;;23.85;;
35634;SDS011;21757;43.610;1.440;2023-01-26T00:39:56;47.83;;;24.00;;
35634;SDS011;21757;43.610;1.440;2023-01-26T00:42:22;43.75;;;23.98;;
35634;SDS011;21757;43.610;1.440;2023-01-26T00:44:48;46.58;;;23.48;;
35634;SDS011;21757;43.610;1.440;2023-01-26T00:47:14;43.45;;;23.45;;
35634;SDS011;21757;43.610;1.440;2023-01-26T00:49:41;45.25;;;24.50;;
35634;SDS011;21757;43.610;1.440;2023-01-26T00:52:07;48.65;;;24.38;;
35634;SDS011;21757;43.610;1.440;2023-01-26T00:54:33;44.63;;;23.13;;
35634;SDS011;21757;43.610;1.440;2023-01-26T00:56:58;45.80;;;23.25;;
35634;SDS011;21757;43.610;1.440;2023-01-26T00:59:24;46.80;;;24.60;;
35634;SDS011;21757;43.610;1.440;2023-01-26T01:01:50;46.67;;;25.52;;
35634;SDS011;21757;43.610;1.440;2023-01-26T01:04:17;46.60;;;24.17;;
35634;SDS011;21757;43.610;1.440;2023-01-26T01:06:43;43.95;;;23.27;;
35634;SDS011;21757;43.610;1.440;2023-01-26T01:09:09;45.92;;;24.30;;
35634;SDS011;21757;43.610;1.440;2023-01-26T01:11:35;41.63;;;23.33;;
35634;SDS011;21757;43.610;1.440;2023-01-26T01:14:01;38.65;;;22.38;;
35634;SDS011;21757;43.610;1.440;2023-01-26T01:16:26;46.08;;;24.70;;
35634;SDS011;21757;43.610;1.440;2023-01-26T01:18:55;42.53;;;23.98;;
35634;SDS011;21757;43.610;1.440;2023-01-26T01:21:21;44.83;;;23.60;;
35634;SDS011;21757;43.610;1.440;2023-01-26T01:23:48;41.65;;;21.80;;
35634;SDS011;21757;43.610;1.440;2023-01-26T01:26:14;38.45;;;20.95;;
35634;SDS011;21757;43.610;1.440;2023-01-26T01:28:41;39.92;;;22.00;;
35634;SDS011;21757;43.610;1.440;2023-01-26T01:31:08;40.95;;;21.50;;
35634;SDS011;21757;43.610;1.440;2023-01-26T01:33:35;38.50;;;21.23;;
35634;SDS011;21757;43.610;1.440;2023-01-26T01:36:03;39.13;;;20.88;;
35634;SDS011;21757;43.610;1.440;2023-01-26T01:38:30;36.78;;;21.13;;
35634;SDS011;21757;43.610;1.440;2023-01-26T01:40:56;39.17;;;21.55;;
35634;SDS011;21757;43.610;1.440;2023-01-26T01:43:22;37.10;;;21.45;;
35634;SDS011;21757;43.610;1.440;2023-01-26T01:45:50;37.47;;;21.33;;
35634;SDS011;21757;43.610;1.440;2023-01-26T01:48:24;41.83;;;21.40;;
35634;SDS011;21757;43.610;1.440;2023-01-26T01:53:28;34.22;;;19.50;;
35634;SDS011;21757;43.610;1.440;2023-01-26T01:56:05;34.72;;;20.40;;
35634;SDS011;21757;43.610;1.440;2023-01-26T01:58:36;35.70;;;20.45;;
35634;SDS011;21757;43.610;1.440;2023-01-26T02:01:05;28.00;;;15.38;;
35634;SDS011;21757;43.610;1.440;2023-01-26T02:03:32;34.65;;;19.55;;
35634;SDS011;21757;43.610;1.440;2023-01-26T02:08:47;35.45;;;20.30;;
35634;SDS011;21757;43.610;1.440;2023-01-26T02:11:16;37.42;;;20.98;;
35634;SDS011;21757;43.610;1.440;2023-01-26T02:13:47;38.20;;;20.17;;
35634;SDS011;21757;43.610;1.440;2023-01-26T02:16:14;35.15;;;20.20;;
35634;SDS011;21757;43.610;1.440;2023-01-26T02:18:41;35.13;;;19.95;;
35634;SDS011;21757;43.610;1.440;2023-01-26T02:21:11;34.83;;;20.13;;
35634;SDS011;21757;43.610;1.440;2023-01-26T02:28:45;36.50;;;21.08;;
35634;SDS011;21757;43.610;1.440;2023-01-26T02:31:11;36.97;;;20.23;;
35634;SDS011;21757;43.610;1.440;2023-01-26T02:33:38;34.80;;;20.83;;
35634;SDS011;21757;43.610;1.440;2023-01-26T02:36:05;38.33;;;20.70;;
35634;SDS011;21757;43.610;1.440;2023-01-26T02:38:42;36.30;;;19.88;;
35634;SDS011;21757;43.610;1.440;2023-01-26T02:41:11;38.75;;;20.98;;
35634;SDS011;21757;43.610;1.440;2023-01-26T02:44:03;38.05;;;21.80;;
35634;SDS011;21757;43.610;1.440;2023-01-26T02:46:31;45.70;;;24.50;;
35634;SDS011;21757;43.610;1.440;2023-01-26T02:48:57;47.95;;;26.45;;
35634;SDS011;21757;43.610;1.440;2023-01-26T02:51:41;43.85;;;25.42;;
35634;SDS011;21757;43.610;1.440;2023-01-26T02:54:06;247.45;;;157.65;;
35634;SDS011;21757;43.610;1.440;2023-01-26T02:56:32;294.75;;;182.73;;
35634;SDS011;21757;43.610;1.440;2023-01-26T02:59:03;77.43;;;49.00;;
35634;SDS011;21757;43.610;1.440;2023-01-26T03:01:29;42.17;;;24.63;;
35634;SDS011;21757;43.610;1.440;2023-01-26T03:03:55;37.80;;;20.75;;
35634;SDS011;21757;43.610;1.440;2023-01-26T03:06:20;37.83;;;21.42;;
35634;SDS011;21757;43.610;1.440;2023-01-26T03:08:46;35.17;;;20.52;;
35634;SDS011;21757;43.610;1.440;2023-01-26T03:11:12;36.08;;;19.80;;
35634;SDS011;21757;43.610;1.440;2023-01-26T03:13:38;36.78;;;20.17;;
35634;SDS011;21757;43.610;1.440;2023-01-26T03:16:07;37.33;;;20.70;;
35634;SDS011;21757;43.610;1.440;2023-01-26T03:18:33;38.38;;;21.20;;
35634;SDS011;21757;43.610;1.440;2023-01-26T03:21:18;35.80;;;20.08;;
35634;SDS011;21757;43.610;1.440;2023-01-26T03:24:02;37.80;;;20.25;;
35634;SDS011;21757;43.610;1.440;2023-01-26T03:26:47;34.22;;;19.25;;
35634;SDS011;21757;43.610;1.440;2023-01-26T03:29:32;33.75;;;19.60;;
35634;SDS011;21757;43.610;1.440;2023-01-26T03:31:58;35.55;;;20.05;;
35634;SDS011;21757;43.610;1.440;2023-01-26T03:34:24;34.97;;;19.83;;
35634;SDS011;21757;43.610;1.440;2023-01-26T03:36:50;36.67;;;20.65;;
35634;SDS011;21757;43.610;1.440;2023-01-26T03:39:16;35.17;;;20.27;;
35634;SDS011;21757;43.610;1.440;2023-01-26T03:42:00;30.88;;;17.30;;
35634;SDS011;21757;43.610;1.440;2023-01-26T03:44:45;34.05;;;19.20;;
35634;SDS011;21757;43.610;1.440;2023-01-26T03:47:30;32.67;;;19.13;;
35634;SDS011;21757;43.610;1.440;2023-01-26T03:50:15;33.22;;;18.80;;
35634;SDS011;21757;43.610;1.440;2023-01-26T03:52:59;31.20;;;18.33;;
35634;SDS011;21757;43.610;1.440;2023-01-26T03:55:43;32.47;;;18.83;;
35634;SDS011;21757;43.610;1.440;2023-01-26T03:58:27;32.55;;;18.50;;
35634;SDS011;21757;43.610;1.440;2023-01-26T04:00:54;29.50;;;17.85;;
35634;SDS011;21757;43.610;1.440;2023-01-26T04:03:21;31.63;;;18.52;;
35634;SDS011;21757;43.610;1.440;2023-01-26T04:06:05;31.70;;;18.55;;
35634;SDS011;21757;43.610;1.440;2023-01-26T04:08:49;28.83;;;17.20;;
35634;SDS011;21757;43.610;1.440;2023-01-26T04:11:15;29.92;;;18.88;;
35634;SDS011;21757;43.610;1.440;2023-01-26T04:13:40;30.10;;;17.58;;
35634;SDS011;21757;43.610;1.440;2023-01-26T04:16:25;33.83;;;18.27;;
35634;SDS011;21757;43.610;1.440;2023-01-26T04:19:09;34.08;;;18.52;;
35634;SDS011;21757;43.610;1.440;2023-01-26T04:21:53;33.55;;;18.88;;
35634;SDS011;21757;43.610;1.440;2023-01-26T04:24:19;35.08;;;19.63;;
35634;SDS011;21757;43.610;1.440;2023-01-26T04:26:46;32.50;;;19.02;;
35634;SDS011;21757;43.610;1.440;2023-01-26T04:29:13;37.00;;;19.65;;
35634;SDS011;21757;43.610;1.440;2023-01-26T04:31:40;34.83;;;19.50;;
35634;SDS011;21757;43.610;1.440;2023-01-26T04:34:09;34.67;;;19.02;;
35634;SDS011;21757;43.610;1.440;2023-01-26T04:36:37;37.38;;;19.65;;
35634;SDS011;21757;43.610;1.440;2023-01-26T04:39:03;31.67;;;18.25;;
35634;SDS011;21757;43.610;1.440;2023-01-26T04:41:29;34.17;;;17.83;;
35634;SDS011;21757;43.610;1.440;2023-01-26T04:43:56;36.20;;;19.70;;
35634;SDS011;21757;43.610;1.440;2023-01-26T04:46:22;34.88;;;19.25;;
35634;SDS011;21757;43.610;1.440;2023-01-26T04:48:47;36.72;;;19.45;;
35634;SDS011;21757;43.610;1.440;2023-01-26T04:51:14;34.10;;;19.23;;
35634;SDS011;21757;43.610;1.440;2023-01-26T04:53:41;38.45;;;19.98;;
35634;SDS011;21757;43.610;1.440;2023-01-26T04:56:10;36.03;;;18.58;;
35634;SDS011;21757;43.610;1.440;2023-01-26T04:58:49;39.90;;;20.65;;
35634;SDS011;21757;43.610;1.440;2023-01-26T05:01:15;34.47;;;19.88;;
35634;SDS011;21757;43.610;1.440;2023-01-26T05:03:41;38.80;;;20.83;;
35634;SDS011;21757;43.610;1.440;2023-01-26T05:06:07;37.15;;;19.23;;
35634;SDS011;21757;43.610;1.440;2023-01-26T05:08:33;34.85;;;18.45;;
35634;SDS011;21757;43.610;1.440;2023-01-26T05:11:00;32.35;;;17.52;;
35634;SDS011;21757;43.610;1.440;2023-01-26T05:13:25;34.45;;;17.80;;
35634;SDS011;21757;43.610;1.440;2023-01-26T05:15:51;30.38;;;16.33;;
35634;SDS011;21757;43.610;1.440;2023-01-26T05:18:17;29.92;;;15.35;;
35634;SDS011;21757;43.610;1.440;2023-01-26T05:20:43;29.33;;;16.02;;
35634;SDS011;21757;43.610;1.440;2023-01-26T05:23:08;27.10;;;15.18;;
35634;SDS011;21757;43.610;1.440;2023-01-26T05:25:34;29.23;;;14.52;;
35634;SDS011;21757;43.610;1.440;2023-01-26T05:28:00;26.27;;;14.95;;
35634;SDS011;21757;43.610;1.440;2023-01-26T05:30:25;24.52;;;14.13;;
35634;SDS011;21757;43.610;1.440;2023-01-26T05:32:51;24.23;;;13.25;;
35634;SDS011;21757;43.610;1.440;2023-01-26T05:35:17;25.00;;;12.80;;
35634;SDS011;21757;43.610;1.440;2023-01-26T05:37:43;22.75;;;12.15;;
35634;SDS011;21757;43.610;1.440;2023-01-26T05:40:10;23.40;;;12.60;;
35634;SDS011;21757;43.610;1.440;2023-01-26T05:42:36;26.90;;;13.57;;
35634;SDS011;21757;43.610;1.440;2023-01-26T05:45:03;27.50;;;13.45;;
35634;SDS011;21757;43.610;1.440;2023-01-26T05:47:29;30.23;;;14.05;;
35634;SDS011;21757;43.610;1.440;2023-01-26T05:49:55;29.25;;;14.40;;
35634;SDS011;21757;43.610;1.440;2023-01-26T05:52:20;31.60;;;14.35;;
35634;SDS011;21757;43.610;1.440;2023-01-26T05:54:46;33.70;;;14.60;;
35634;SDS011;21757;43.610;1.440;2023-01-26T05:57:12;31.42;;;15.38;;
35634;SDS011;21757;43.610;1.440;2023-01-26T05:59:40;29.48;;;13.73;;
35634;SDS011;21757;43.610;1.440;2023-01-26T06:02:06;31.60;;;14.73;;
35634;SDS011;21757;43.610;1.440;2023-01-26T06:04:35;34.90;;;15.18;;
35634;SDS011;21757;43.610;1.440;2023-01-26T06:07:01;31.42;;;14.30;;
35634;SDS011;21757;43.610;1.440;2023-01-26T06:09:26;33.67;;;15.48;;
35634;SDS011;21757;43.610;1.440;2023-01-26T06:11:52;35.40;;;14.13;;
35634;SDS011;21757;43.610;1.440;2023-01-26T06:14:18;34.30;;;14.27;;
35634;SDS011;21757;43.610;1.440;2023-01-26T06:16:43;32.65;;;15.05;;
35634;SDS011;21757;43.610;1.440;2023-01-26T06:19:09;35.67;;;14.75;;
35634;SDS011;21757;43.610;1.440;2023-01-26T06:21:35;35.28;;;14.05;;
35634;SDS011;21757;43.610;1.440;2023-01-26T06:24:01;33.47;;;13.82;;
35634;SDS011;21757;43.610;1.440;2023-01-26T06:26:27;32.72;;;14.32;;
35634;SDS011;21757;43.610;1.440;2023-01-26T06:28:53;35.05;;;15.63;;
35634;SDS011;21757;43.610;1.440;2023-01-26T06:31:19;32.30;;;14.25;;
35634;SDS011;21757;43.610;1.440;2023-01-26T06:33:45;32.13;;;14.10;;
35634;SDS011;21757;43.610;1.440;2023-01-26T06:36:12;31.27;;;13.35;;
35634;SDS011;21757;43.610;1.440;2023-01-26T06:38:43;31.08;;;13.25;;
35634;SDS011;21757;43.610;1.440;2023-01-26T06:41:10;27.15;;;12.15;;
35634;SDS011;21757;43.610;1.440;2023-01-26T06:43:35;25.38;;;12.00;;
35634;SDS011;21757;43.610;1.440;2023-01-26T06:46:04;27.80;;;11.68;;
35634;SDS011;21757;43.610;1.440;2023-01-26T06:48:31;22.75;;;11.80;;
35634;SDS011;21757;43.610;1.440;2023-01-26T06:53:36;26.95;;;12.52;;
35634;SDS011;21757;43.610;1.440;2023-01-26T06:56:04;25.13;;;11.68;;
35634;SDS011;21757;43.610;1.440;2023-01-26T06:58:30;25.90;;;11.82;;
35634;SDS011;21757;43.610;1.440;2023-01-26T07:00:56;23.38;;;11.23;;
35634;SDS011;21757;43.610;1.440;2023-01-26T07:03:22;23.08;;;10.82;;
35634;SDS011;21757;43.610;1.440;2023-01-26T07:05:48;24.02;;;12.30;;
35634;SDS011;21757;43.610;1.440;2023-01-26T07:08:13;24.35;;;11.63;;
35634;SDS011;21757;43.610;1.440;2023-01-26T07:10:39;24.48;;;12.63;;
35634;SDS011;21757;43.610;1.440;2023-01-26T07:13:05;25.60;;;12.13;;
35634;SDS011;21757;43.610;1.440;2023-01-26T07:15:31;24.40;;;12.73;;
35634;SDS011;21757;43.610;1.440;2023-01-26T07:17:58;25.80;;;12.88;;
35634;SDS011;21757;43.610;1.440;2023-01-26T07:20:24;24.45;;;12.55;;
35634;SDS011;21757;43.610;1.440;2023-01-26T07:22:50;29.23;;;14.32;;
35634;SDS011;21757;43.610;1.440;2023-01-26T07:25:17;23.42;;;13.02;;
35634;SDS011;21757;43.610;1.440;2023-01-26T07:27:42;26.92;;;13.30;;
35634;SDS011;21757;43.610;1.440;2023-01-26T07:30:09;28.33;;;14.52;;
35634;SDS011;21757;43.610;1.440;2023-01-26T07:32:36;31.23;;;14.90;;
35634;SDS011;21757;43.610;1.440;2023-01-26T07:35:02;32.53;;;15.70;;
35634;SDS011;21757;43.610;1.440;2023-01-26T07:37:29;28.85;;;14.70;;
35634;SDS011;21757;43.610;1.440;2023-01-26T07:39:55;32.90;;;15.57;;
35634;SDS011;21757;43.610;1.440;2023-01-26T07:42:20;28.90;;;15.20;;
35634;SDS011;21757;43.610;1.440;2023-01-26T07:44:46;34.85;;;15.98;;
35634;SDS011;21757;43.610;1.440;2023-01-26T07:47:12;30.27;;;14.93;;
35634;SDS011;21757;43.610;1.440;2023-01-26T07:49:38;30.95;;;16.15;;
35634;SDS011;21757;43.610;1.440;2023-01-26T07:52:05;33.97;;;16.67;;
35634;SDS011;21757;43.610;1.440;2023-01-26T07:54:30;29.95;;;15.20;;
35634;SDS011;21757;43.610;1.440;2023-01-26T07:56:56;35.35;;;16.63;;
35634;SDS011;21757;43.610;1.440;2023-01-26T07:59:22;30.95;;;15.88;;
35634;SDS011;21757;43.610;1.440;2023-01-26T08:01:48;31.83;;;15.88;;
35634;SDS011;21757;43.610;1.440;2023-01-26T08:04:15;36.50;;;16.23;;
35634;SDS011;21757;43.610;1.440;2023-01-26T08:06:40;26.95;;;14.85;;
35634;SDS011;21757;43.610;1.440;2023-01-26T08:09:06;29.20;;;15.00;;
35634;SDS011;21757;43.610;1.440;2023-01-26T08:11:32;30.75;;;16.20;;
35634;SDS011;21757;43.610;1.440;2023-01-26T08:13:58;29.73;;;15.57;;
35634;SDS011;21757;43.610;1.440;2023-01-26T08:16:23;27.25;;;15.40;;
35634;SDS011;21757;43.610;1.440;2023-01-26T08:18:49;27.83;;;14.48;;
35634;SDS011;21757;43.610;1.440;2023-01-26T08:21:15;31.55;;;16.27;;
35634;SDS011;21757;43.610;1.440;2023-01-26T08:23:42;27.83;;;15.70;;
35634;SDS011;21757;43.610;1.440;2023-01-26T08:26:09;31.60;;;16.20;;
35634;SDS011;21757;43.610;1.440;2023-01-26T08:28:37;29.85;;;16.08;;
35634;SDS011;21757;43.610;1.440;2023-01-26T08:31:08;29.95;;;16.70;;
35634;SDS011;21757;43.610;1.440;2023-01-26T08:36:02;28.17;;;14.27;;
35634;SDS011;21757;43.610;1.440;2023-01-26T08:38:29;31.30;;;15.20;;
35634;SDS011;21757;43.610;1.440;2023-01-26T08:40:56;29.02;;;15.35;;
35634;SDS011;21757;43.610;1.440;2023-01-26T08:43:22;28.27;;;15.55;;
35634;SDS011;21757;43.610;1.440;2023-01-26T08:45:47;26.88;;;14.95;;
35634;SDS011;21757;43.610;1.440;2023-01-26T08:48:13;26.17;;;15.38;;
35634;SDS011;21757;43.610;1.440;2023-01-26T08:50:39;28.70;;;15.68;;
35634;SDS011;21757;43.610;1.440;2023-01-26T08:53:04;26.27;;;15.35;;
35634;SDS011;21757;43.610;1.440;2023-01-26T08:55:30;29.13;;;15.68;;
35634;SDS011;21757;43.610;1.440;2023-01-26T08:57:57;29.02;;;14.93;;
35634;SDS011;21757;43.610;1.440;2023-01-26T09:00:24;33.05;;;16.85;;
35634;SDS011;21757;43.610;1.440;2023-01-26T09:02:57;25.75;;;14.73;;
35634;SDS011;21757;43.610;1.440;2023-01-26T09:05:22;30.15;;;16.08;;
35634;SDS011;21757;43.610;1.440;2023-01-26T09:07:48;28.08;;;15.38;;
35634;SDS011;21757;43.610;1.440;2023-01-26T09:10:14;27.83;;;15.88;;
35634;SDS011;21757;43.610;1.440;2023-01-26T09:12:40;28.67;;;15.95;;
35634;SDS011;21757;43.610;1.440;2023-01-26T09:15:06;27.92;;;15.48;;
35634;SDS011;21757;43.610;1.440;2023-01-26T09:17:32;25.67;;;15.77;;
35634;SDS011;21757;43.610;1.440;2023-01-26T09:19:58;27.42;;;15.50;;
35634;SDS011;21757;43.610;1.440;2023-01-26T09:22:24;25.48;;;14.85;;
35634;SDS011;21757;43.610;1.440;2023-01-26T09:24:49;32.50;;;17.77;;
35634;SDS011;21757;43.610;1.440;2023-01-26T09:27:15;24.95;;;15.27;;
35634;SDS011;21757;43.610;1.440;2023-01-26T09:29:41;26.75;;;16.45;;
35634;SDS011;21757;43.610;1.440;2023-01-26T09:32:06;28.30;;;15.98;;
35634;SDS011;21757;43.610;1.440;2023-01-26T09:34:32;24.38;;;14.55;;
35634;SDS011;21757;43.610;1.440;2023-01-26T09:36:58;23.45;;;14.43;;
35634;SDS011;21757;43.610;1.440;2023-01-26T09:39:23;25.02;;;14.63;;
35634;SDS011;21757;43.610;1.440;2023-01-26T09:52:53;25.20;;;14.18;;
35634;SDS011;21757;43.610;1.440;2023-01-26T09:55:20;23.10;;;13.07;;
35634;SDS011;21757;43.610;1.440;2023-01-26T09:57:59;23.55;;;13.85;;
35634;SDS011;21757;43.610;1.440;2023-01-26T10:00:49;20.80;;;13.52;;
35634;SDS011;21757;43.610;1.440;2023-01-26T10:03:26;20.48;;;13.05;;
35634;SDS011;21757;43.610;1.440;2023-01-26T10:08:37;22.42;;;14.25;;
35634;SDS011;21757;43.610;1.440;2023-01-26T10:11:27;22.80;;;13.05;;
35634;SDS011;21757;43.610;1.440;2023-01-26T10:14:13;20.83;;;13.05;;
35634;SDS011;21757;43.610;1.440;2023-01-26T10:16:48;22.75;;;13.88;;
35634;SDS011;21757;43.610;1.440;2023-01-26T10:19:37;23.02;;;13.38;;
35634;SDS011;21757;43.610;1.440;2023-01-26T10:22:14;24.63;;;14.23;;
35634;SDS011;21757;43.610;1.440;2023-01-26T10:24:49;22.40;;;14.43;;
35634;SDS011;21757;43.610;1.440;2023-01-26T10:27:16;25.13;;;14.45;;
35634;SDS011;21757;43.610;1.440;2023-01-26T10:29:43;26.58;;;14.95;;
35634;SDS011;21757;43.610;1.440;2023-01-26T10:32:12;22.63;;;14.07;;
35634;SDS011;21757;43.610;1.440;2023-01-26T10:34:41;23.20;;;14.30;;
35634;SDS011;21757;43.610;1.440;2023-01-26T10:37:27;23.73;;;14.75;;
35634;SDS011;21757;43.610;1.440;2023-01-26T10:40:00;21.30;;;13.23;;
35634;SDS011;21757;43.610;1.440;2023-01-26T10:42:29;22.33;;;13.70;;
35634;SDS011;21757;43.610;1.440;2023-01-26T10:44:57;19.88;;;12.80;;
35634;SDS011;21757;43.610;1.440;2023-01-26T10:47:26;20.10;;;12.88;;
35634;SDS011;21757;43.610;1.440;2023-01-26T10:49:52;19.05;;;12.27;;
35634;SDS011;21757;43.610;1.440;2023-01-26T10:52:37;18.70;;;11.02;;
35634;SDS011;21757;43.610;1.440;2023-01-26T10:55:10;18.38;;;12.35;;
35634;SDS011;21757;43.610;1.440;2023-01-26T10:57:38;17.83;;;11.50;;
35634;SDS011;21757;43.610;1.440;2023-01-26T11:00:06;17.10;;;11.07;;
35634;SDS011;21757;43.610;1.440;2023-01-26T11:02:53;17.27;;;11.05;;
35634;SDS011;21757;43.610;1.440;2023-01-26T11:05:40;18.67;;;11.18;;
35634;SDS011;21757;43.610;1.440;2023-01-26T11:08:52;17.73;;;11.25;;
35634;SDS011;21757;43.610;1.440;2023-01-26T11:10:58;20.13;;;11.30;;
35634;SDS011;21757;43.610;1.440;2023-01-26T11:13:24;18.23;;;10.93;;
35634;SDS011;21757;43.610;1.440;2023-01-26T11:18:49;24.20;;;14.25;;
35634;SDS011;21757;43.610;1.440;2023-01-26T11:21:28;22.40;;;13.25;;
35634;SDS011;21757;43.610;1.440;2023-01-26T11:27:05;20.38;;;11.75;;
35634;SDS011;21757;43.610;1.440;2023-01-26T11:32:29;22.30;;;12.77;;
35634;SDS011;21757;43.610;1.440;2023-01-26T11:41:03;18.25;;;11.90;;
35634;SDS011;21757;43.610;1.440;2023-01-26T12:03:01;16.92;;;9.98;;
35634;SDS011;21757;43.610;1.440;2023-01-26T12:05:30;15.25;;;9.30;;
35634;SDS011;21757;43.610;1.440;2023-01-26T12:10:55;10.10;;;6.72;;
35634;SDS011;21757;43.610;1.440;2023-01-26T12:13:46;14.48;;;9.05;;
35634;SDS011;21757;43.610;1.440;2023-01-26T12:16:20;30.20;;;16.40;;
35634;SDS011;21757;43.610;1.440;2023-01-26T12:18:56;14.05;;;8.95;;
35634;SDS011;21757;43.610;1.440;2023-01-26T12:21:36;14.02;;;9.93;;
35634;SDS011;21757;43.610;1.440;2023-01-26T12:24:05;16.65;;;9.52;;
35634;SDS011;21757;43.610;1.440;2023-01-26T12:26:38;12.35;;;8.80;;
35634;SDS011;21757;43.610;1.440;2023-01-26T12:34:34;13.40;;;8.30;;
35634;SDS011;21757;43.610;1.440;2023-01-26T12:45:28;12.32;;;8.23;;
35634;SDS011;21757;43.610;1.440;2023-01-26T12:48:04;10.40;;;6.57;;
35634;SDS011;21757;43.610;1.440;2023-01-26T12:50:38;12.52;;;8.35;;
35634;SDS011;21757;43.610;1.440;2023-01-26T12:58:40;12.85;;;9.20;;
35634;SDS011;21757;43.610;1.440;2023-01-26T13:03:44;12.73;;;7.53;;
35634;SDS011;21757;43.610;1.440;2023-01-26T13:06:26;11.10;;;7.28;;
35634;SDS011;21757;43.610;1.440;2023-01-26T13:11:43;14.23;;;8.45;;
35634;SDS011;21757;43.610;1.440;2023-01-26T13:24:46;13.77;;;8.82;;
35634;SDS011;21757;43.610;1.440;2023-01-26T13:35:13;12.15;;;7.53;;
35634;SDS011;21757;43.610;1.440;2023-01-26T13:38:02;11.63;;;8.13;;
35634;SDS011;21757;43.610;1.440;2023-01-26T13:40:58;14.57;;;8.23;;
35634;SDS011;21757;43.610;1.440;2023-01-26T13:43:27;13.60;;;8.45;;
35634;SDS011;21757;43.610;1.440;2023-01-26T13:48:56;11.02;;;7.47;;
35634;SDS011;21757;43.610;1.440;2023-01-26T13:51:25;10.20;;;7.45;;
35634;SDS011;21757;43.610;1.440;2023-01-26T13:54:05;14.30;;;7.95;;
35634;SDS011;21757;43.610;1.440;2023-01-26T13:56:42;12.73;;;7.85;;
35634;SDS011;21757;43.610;1.440;2023-01-26T13:59:23;12.82;;;8.32;;
35634;SDS011;21757;43.610;1.440;2023-01-26T14:01:51;14.60;;;8.07;;
35634;SDS011;21757;43.610;1.440;2023-01-26T14:04:20;13.15;;;7.80;;
35634;SDS011;21757;43.610;1.440;2023-01-26T14:09:31;11.47;;;7.87;;
35634;SDS011;21757;43.610;1.440;2023-01-26T14:12:00;14.20;;;8.38;;
35634;SDS011;21757;43.610;1.440;2023-01-26T14:14:29;13.60;;;8.15;;
35634;SDS011;21757;43.610;1.440;2023-01-26T14:17:00;14.13;;;8.75;;
35634;SDS011;21757;43.610;1.440;2023-01-26T14:19:31;11.10;;;5.53;;
35634;SDS011;21757;43.610;1.440;2023-01-26T14:22:09;12.50;;;7.80;;
35634;SDS011;21757;43.610;1.440;2023-01-26T14:24:39;13.75;;;7.50;;
35634;SDS011;21757;43.610;1.440;2023-01-26T14:27:24;12.18;;;7.63;;
35634;SDS011;21757;43.610;1.440;2023-01-26T14:30:01;11.25;;;6.97;;
35634;SDS011;21757;43.610;1.440;2023-01-26T14:32:44;12.50;;;7.72;;
35634;SDS011;21757;43.610;1.440;2023-01-26T14:35:18;12.50;;;8.05;;
35634;SDS011;21757;43.610;1.440;2023-01-26T14:37:49;13.15;;;8.23;;
35634;SDS011;21757;43.610;1.440;2023-01-26T14:40:28;12.95;;;8.35;;
35634;SDS011;21757;43.610;1.440;2023-01-26T14:42:54;13.05;;;7.60;;
35634;SDS011;21757;43.610;1.440;2023-01-26T14:45:24;15.35;;;7.57;;
35634;SDS011;21757;43.610;1.440;2023-01-26T14:47:55;12.18;;;8.48;;
35634;SDS011;21757;43.610;1.440;2023-01-26T14:50:28;13.07;;;7.97;;
35634;SDS011;21757;43.610;1.440;2023-01-26T14:52:57;13.32;;;8.40;;
35634;SDS011;21757;43.610;1.440;2023-01-26T14:55:26;14.82;;;8.85;;
35634;SDS011;21757;43.610;1.440;2023-01-26T14:57:53;11.73;;;7.32;;
35634;SDS011;21757;43.610;1.440;2023-01-26T15:02:58;11.10;;;7.50;;
35634;SDS011;21757;43.610;1.440;2023-01-26T15:05:37;12.40;;;7.30;;
35634;SDS011;21757;43.610;1.440;2023-01-26T15:08:22;11.63;;;7.40;;
35634;SDS011;21757;43.610;1.440;2023-01-26T15:10:57;14.70;;;7.78;;
35634;SDS011;21757;43.610;1.440;2023-01-26T15:13:44;15.57;;;8.32;;
35634;SDS011;21757;43.610;1.440;2023-01-26T15:16:16;13.15;;;7.57;;
35634;SDS011;21757;43.610;1.440;2023-01-26T15:18:43;14.75;;;7.88;;
35634;SDS011;21757;43.610;1.440;2023-01-26T15:21:17;13.30;;;7.65;;
35634;SDS011;21757;43.610;1.440;2023-01-26T15:23:49;13.43;;;7.53;;
35634;SDS011;21757;43.610;1.440;2023-01-26T15:28:53;12.63;;;7.95;;
35634;SDS011;21757;43.610;1.440;2023-01-26T15:31:26;14.98;;;8.20;;
35634;SDS011;21757;43.610;1.440;2023-01-26T15:33:53;14.73;;;8.23;;
35634;SDS011;21757;43.610;1.440;2023-01-26T15:36:21;16.45;;;8.75;;
35634;SDS011;21757;43.610;1.440;2023-01-26T15:41:38;16.25;;;8.07;;
35634;SDS011;21757;43.610;1.440;2023-01-26T15:44:11;14.40;;;8.70;;
35634;SDS011;21757;43.610;1.440;2023-01-26T15:46:40;13.05;;;8.07;;
35634;SDS011;21757;43.610;1.440;2023-01-26T15:49:05;13.05;;;7.85;;
35634;SDS011;21757;43.610;1.440;2023-01-26T15:51:31;13.35;;;7.85;;
35634;SDS011;21757;43.610;1.440;2023-01-26T15:53:57;14.38;;;8.20;;
35634;SDS011;21757;43.610;1.440;2023-01-26T15:56:22;12.48;;;8.00;;
35634;SDS011;21757;43.610;1.440;2023-01-26T15:58:48;13.88;;;9.00;;
35634;SDS011;21757;43.610;1.440;2023-01-26T16:01:16;16.15;;;8.30;;
35634;SDS011;21757;43.610;1.440;2023-01-26T16:03:47;11.30;;;7.68;;
35634;SDS011;21757;43.610;1.440;2023-01-26T16:08:48;11.13;;;7.35;;
35634;SDS011;21757;43.610;1.440;2023-01-26T16:11:14;12.82;;;7.60;;
35634;SDS011;21757;43.610;1.440;2023-01-26T16:13:40;11.30;;;7.60;;
35634;SDS011;21757;43.610;1.440;2023-01-26T16:16:09;11.85;;;8.50;;
35634;SDS011;21757;43.610;1.440;2023-01-26T16:18:36;17.15;;;7.85;;
35634;SDS011;21757;43.610;1.440;2023-01-26T16:21:02;12.35;;;7.97;;
35634;SDS011;21757;43.610;1.440;2023-01-26T16:23:43;14.85;;;8.23;;
35634;SDS011;21757;43.610;1.440;2023-01-26T16:26:09;12.88;;;8.00;;
35634;SDS011;21757;43.610;1.440;2023-01-26T16:28:37;13.43;;;8.27;;
35634;SDS011;21757;43.610;1.440;2023-01-26T16:31:04;14.50;;;8.70;;
35634;SDS011;21757;43.610;1.440;2023-01-26T16:33:55;14.05;;;8.25;;
35634;SDS011;21757;43.610;1.440;2023-01-26T16:36:22;12.32;;;8.15;;
35634;SDS011;21757;43.610;1.440;2023-01-26T16:38:48;15.05;;;8.90;;
35634;SDS011;21757;43.610;1.440;2023-01-26T16:41:35;13.13;;;8.07;;
35634;SDS011;21757;43.610;1.440;2023-01-26T16:44:00;14.15;;;8.25;;